Brookings, SD

6:50 AM CST on December 22, 2014 (GMT -0600)
Neighborhood | Change Station
CLOSE
Current Station
Personal Weather Station
Location: Brookings, SD
Elevation: 1627 ft
Nearby Weather Stations

Elev 1627 ft 44.29 °N, 96.78 °W | Updated 1 minute ago

Rain
Rain
37.6 °F
Feels Like 38 °F
N
2.0
Wind Variable Wind from ENE
Gusts 4.0 mph

Today
High -- | Low -- °F
--% Chance of Precip.
Yesterday
High -- | Low -- °F
Precip. -- in
8:00 AM 4:51 PM
New Moon, 0% visible
Pressure 29.44 in
Visibility 5.0 miles
Clouds Overcast 200 ft
Windchill 38 °F
Dew Point 37 °F
Humidity 98%
Rainfall 0.09 in
Snow Depth Not available.
UV 0.0 out of 12
Pollen .10 out of 12
Air Quality Not available.
Flu Activity Not available.
METAR KMDS 221230Z AUTO 16009KT 5SM -RA OVC002 02/02 A2944 RMK AO2

More Conditions Fewer Conditions

Pressure 29.44 in
Visibility 5.0 miles
Clouds Overcast 200 ft
Windchill 38 °F
Dew Point 37 °F
Humidity 98%
Rainfall 0.09 in
Snow Depth Not available.
UV 0.0 out of 12
Pollen .10 out of 12
Air Quality Not available.
Flu Activity Not available.
METAR KMDS 221230Z AUTO 16009KT 5SM -RA OVC002 02/02 A2944 RMK AO2

More Conditions Fewer Conditions

10-Day Weather Forecast

Almanac

Astronomy

Dec. 22, 2014 Rise Set
Actual Time
Civil Twilight
Nautical Twilight
Astronomical Twilight
Moon
Length of Visible Light
Length of Day
Tomorrow will be .
, % of the Moon is Illuminated

Today's Extremes

State Highs State Lows

Community

WunderPhotos

Upload Photos

1,779,598 photos uploaded!

WunderBlogs® & News

Nearby

Air Quality

  Air Quality AQ Index Pollutant
Not available.

Snow Depth

Station Depth Elevation

Earthquake Activity

City Distance Mag. Time & Date
Minimum magnitude displayed is 2.5.

Coastal Water Temperatures

Place Temperature

Nearby Weather Stations